Time;durP1;ratioP1;P1;durP2;ratioP2;P2;SDS_P1;SDS_P2;PMS_P1;PMS_P2;Temp;Humidity;BMP_temperature;BMP_pressure;BME280_temperature;BME280_humidity;BME280_pressure;Samples;Min_cycle;Max_cycle;Signal;HPM_P1;HPM_P2
2022/10/12 00:02:24;;;;;;;89.63;35.25;;;;;;;-145.69;100.00;52543.41;5058814;28;20276;-86
2022/10/12 00:04:54;;;;;;;82.18;32.33;;;;;;;-145.69;100.00;52573.13;5057666;28;20211;-87
2022/10/12 00:07:20;;;;;;;74.90;32.92;;;;;;;-145.69;100.00;52579.06;5057485;28;20723;-87
2022/10/12 00:09:49;;;;;;;81.25;32.78;;;;;;;-145.69;100.00;52590.94;5058312;28;20195;-86
2022/10/12 00:12:19;;;;;;;80.68;31.88;;;;;;;-145.69;100.00;52612.72;5057731;28;20204;-87
2022/10/12 00:14:45;;;;;;;85.68;34.70;;;;;;;-145.69;100.00;52586.97;5055496;28;20203;-87
2022/10/12 00:17:14;;;;;;;73.55;31.73;;;;;;;-145.69;100.00;52561.22;5059398;28;20195;-87
2022/10/12 00:19:42;;;;;;;77.78;32.53;;;;;;;-145.69;100.00;52549.34;5060072;28;20210;-87
2022/10/12 00:22:09;;;;;;;86.88;34.17;;;;;;;-145.69;100.00;52590.94;5066348;28;20198;-87
2022/10/12 00:24:35;;;;;;;84.78;32.70;;;;;;;-145.69;100.00;52612.72;5080199;28;20657;-87
2022/10/12 00:27:02;;;;;;;73.68;32.63;;;;;;;-145.69;100.00;52588.97;5076879;28;20226;-86
2022/10/12 00:29:28;;;;;;;73.65;30.75;;;;;;;-145.69;100.00;52579.06;5079336;28;20199;-86
2022/10/12 00:31:55;;;;;;;70.70;31.33;;;;;;;-145.69;100.00;52586.97;5078274;28;20201;-87
2022/10/12 00:34:21;;;;;;;101.32;33.22;;;;;;;-145.69;100.00;52579.06;5082043;28;20195;-87
2022/10/12 00:36:49;;;;;;;71.15;30.70;;;;;;;-145.69;100.00;52616.69;5077460;28;20207;-86
2022/10/12 00:39:16;;;;;;;78.25;31.80;;;;;;;-145.69;100.00;52565.19;5078151;28;20556;-86
2022/10/12 00:41:45;;;;;;;82.78;32.33;;;;;;;-145.69;100.00;52555.28;5075503;28;20198;-86
2022/10/12 00:44:34;;;;;;;66.68;28.58;;;;;;;-145.69;100.00;52575.09;5076229;28;20206;-86
2022/10/12 00:47:05;;;;;;;80.57;27.63;;;;;;;-145.69;100.00;52586.97;5078361;28;20238;-87
2022/10/12 00:49:32;;;;;;;64.22;25.35;;;;;;;-145.69;100.00;52547.38;5078553;28;20208;-86
2022/10/12 00:52:04;;;;;;;64.10;25.33;;;;;;;-145.69;100.00;52610.75;5069005;28;20672;-85
2022/10/12 00:54:35;;;;;;;63.22;23.92;;;;;;;-145.69;100.00;52579.06;5057828;28;20204;-87
2022/10/12 00:57:04;;;;;;;58.22;22.13;;;;;;;-145.69;100.00;52614.72;5055959;28;20207;-86
2022/10/12 00:59:33;;;;;;;65.07;24.42;;;;;;;-145.69;100.00;52559.25;5057579;28;20208;-87
2022/10/12 01:02:02;;;;;;;63.15;24.85;;;;;;;-145.69;100.00;52579.06;5056582;28;20558;-87
2022/10/12 01:04:31;;;;;;;69.05;25.17;;;;;;;-145.69;100.00;52583.00;5057067;28;20196;-88
2022/10/12 01:07:00;;;;;;;61.30;23.05;;;;;;;-145.69;100.00;52600.84;5055460;28;20226;-87
2022/10/12 01:09:28;;;;;;;70.00;27.10;;;;;;;-145.69;100.00;52579.06;5054750;28;20225;-87
2022/10/12 01:11:56;;;;;;;68.18;24.85;;;;;;;-145.69;100.00;52590.94;5056485;28;20206;-87
2022/10/12 01:14:23;;;;;;;73.20;26.20;;;;;;;-145.69;100.00;52581.03;5058078;28;20230;-88
2022/10/12 01:16:54;;;;;;;72.50;26.42;;;;;;;-145.69;100.00;52598.84;5056591;28;20207;-88
2022/10/12 01:19:42;;;;;;;67.43;24.92;;;;;;;-145.69;100.00;52606.78;5052996;28;20265;-87
2022/10/12 01:22:15;;;;;;;66.72;26.33;;;;;;;-145.69;100.00;52586.97;5062969;28;20195;-87
2022/10/12 01:24:49;;;;;;;63.08;24.98;;;;;;;-145.69;100.00;52602.81;5075042;28;20202;-88
2022/10/12 01:27:35;;;;;;;60.35;22.55;;;;;;;-145.69;100.00;52551.31;5075242;28;20222;-87
2022/10/12 01:30:12;;;;;;;58.17;21.58;;;;;;;-145.69;100.00;52590.94;5075277;28;20226;-87
2022/10/12 01:32:53;;;;;;;51.35;20.05;;;;;;;-145.69;100.00;52583.00;5075329;28;20209;-88
2022/10/12 01:35:28;;;;;;;52.75;20.98;;;;;;;-145.69;100.00;52614.72;5076447;28;20201;-87
2022/10/12 01:38:07;;;;;;;50.42;21.60;;;;;;;-145.69;100.00;52598.84;5075524;28;20202;-85
2022/10/12 01:40:40;;;;;;;45.78;18.67;;;;;;;-145.69;100.00;52590.94;5074419;28;20204;-86
2022/10/12 01:43:09;;;;;;;42.78;17.25;;;;;;;-145.69;100.00;52594.91;5067461;28;20202;-86
2022/10/12 01:45:37;;;;;;;56.40;19.38;;;;;;;-145.69;100.00;52583.00;5055223;28;20231;-86
2022/10/12 01:48:06;;;;;;;52.10;20.85;;;;;;;-145.69;100.00;52588.97;5055361;28;20231;-86
2022/10/12 01:50:41;;;;;;;56.78;20.15;;;;;;;-145.69;100.00;52610.75;5056177;28;20642;-86
2022/10/12 01:53:20;;;;;;;58.47;20.38;;;;;;;-145.69;100.00;52579.06;5058042;28;20203;-87
2022/10/12 01:55:53;;;;;;;66.35;19.95;;;;;;;-145.69;100.00;52547.38;5062172;28;20214;-87
2022/10/12 01:58:49;;;;;;;47.80;19.70;;;;;;;-145.69;100.00;52614.72;5062365;28;20216;-87
2022/10/12 02:01:27;;;;;;;45.13;18.75;;;;;;;-145.69;100.00;52579.06;5057295;28;20199;-87
2022/10/12 02:04:04;;;;;;;50.00;19.58;;;;;;;-145.69;100.00;52577.06;5058579;28;20206;-87
2022/10/12 02:06:38;;;;;;;44.85;18.70;;;;;;;-145.69;100.00;52555.28;5059646;28;20266;-87
2022/10/12 02:09:11;;;;;;;45.95;17.92;;;;;;;-145.69;100.00;52567.16;5057893;28;20199;-87
2022/10/12 02:11:41;;;;;;;41.00;17.05;;;;;;;-145.69;100.00;52555.28;5057561;28;20200;-87
2022/10/12 02:14:14;;;;;;;40.88;16.77;;;;;;;-145.69;100.00;52571.13;5055779;28;20208;-87
2022/10/12 02:16:50;;;;;;;39.00;16.20;;;;;;;-145.69;100.00;52571.13;5055375;28;20210;-87
2022/10/12 02:19:22;;;;;;;33.20;14.88;;;;;;;-145.69;100.00;52583.00;5054028;28;20322;-87
2022/10/12 02:21:51;;;;;;;40.83;15.93;;;;;;;-145.69;100.00;52575.09;5052688;28;20196;-86
2022/10/12 02:24:22;;;;;;;33.65;15.00;;;;;;;-145.69;100.00;52551.31;5049741;28;20286;-87
2022/10/12 02:26:53;;;;;;;49.63;18.00;;;;;;;-145.69;100.00;52575.09;5055976;28;20234;-87
2022/10/12 02:29:25;;;;;;;44.10;18.23;;;;;;;-145.69;100.00;52563.22;5058873;28;20199;-87
2022/10/12 02:31:59;;;;;;;52.45;17.50;;;;;;;-145.69;100.00;52586.97;5054253;28;20286;-87
2022/10/12 02:34:34;;;;;;;49.78;19.83;;;;;;;-145.69;100.00;52561.22;5058160;28;20210;-86
2022/10/12 02:37:07;;;;;;;53.50;18.92;;;;;;;-145.69;100.00;52585.00;5060512;28;20202;-87
2022/10/12 02:39:38;;;;;;;42.13;17.63;;;;;;;-145.69;100.00;52583.00;5058278;28;20297;-87
2022/10/12 02:42:21;;;;;;;45.35;16.95;;;;;;;-145.69;100.00;52567.16;5056391;28;20575;-88
2022/10/12 02:44:49;;;;;;;44.08;17.10;;;;;;;-145.69;100.00;52569.16;5056506;28;20199;-87
2022/10/12 02:47:22;;;;;;;40.85;17.38;;;;;;;-145.69;100.00;52596.88;5056634;28;20230;-88
2022/10/12 02:49:51;;;;;;;42.70;16.75;;;;;;;-145.69;100.00;52559.25;5060706;28;20226;-87
2022/10/12 02:52:17;;;;;;;39.28;16.83;;;;;;;-145.69;100.00;52547.38;5063557;28;20195;-87
2022/10/12 02:54:44;;;;;;;46.75;17.50;;;;;;;-145.69;100.00;52585.00;5065078;28;20200;-87
2022/10/12 02:57:10;;;;;;;40.83;17.20;;;;;;;-145.69;100.00;52626.59;5063580;28;20206;-87
2022/10/12 02:59:37;;;;;;;37.53;15.70;;;;;;;-145.69;100.00;52571.13;5063242;28;20195;-87
2022/10/12 03:02:09;;;;;;;34.70;14.68;;;;;;;-145.69;100.00;52588.97;5061621;28;20199;-86
2022/10/12 03:04:37;;;;;;;34.22;14.02;;;;;;;-145.69;100.00;52555.28;5062310;28;20596;-87
2022/10/12 03:07:04;;;;;;;42.47;18.03;;;;;;;-145.69;100.00;52602.81;5062821;28;20450;-88
2022/10/12 03:09:30;;;;;;;34.78;15.63;;;;;;;-145.69;100.00;52571.13;5059434;28;20295;-87
2022/10/12 03:11:57;;;;;;;42.50;16.33;;;;;;;-145.69;100.00;52598.84;5057321;28;20207;-86
2022/10/12 03:14:25;;;;;;;33.95;14.75;;;;;;;-145.69;100.00;52608.75;5075130;28;20195;-87
2022/10/12 03:16:52;;;;;;;34.03;13.88;;;;;;;-145.69;100.00;52553.31;5079337;28;20256;-87
2022/10/12 03:19:19;;;;;;;32.97;17.23;;;;;;;-145.69;100.00;52618.66;5075526;28;20431;-86
2022/10/12 03:21:46;;;;;;;40.17;15.57;;;;;;;-145.69;100.00;52555.28;5076029;28;20203;-86
2022/10/12 03:24:13;;;;;;;30.38;14.00;;;;;;;-145.69;100.00;52555.28;5078860;28;20198;-87
2022/10/12 03:26:39;;;;;;;31.65;13.50;;;;;;;-145.69;100.00;52590.94;5078931;28;20202;-87
2022/10/12 03:29:08;;;;;;;31.70;13.77;;;;;;;-145.69;100.00;52594.91;5079799;28;20258;-87
2022/10/12 03:31:34;;;;;;;39.78;15.90;;;;;;;-145.69;100.00;52581.03;5079696;28;20281;-87
2022/10/12 03:34:01;;;;;;;34.30;15.60;;;;;;;-145.69;100.00;52590.94;5084768;28;20199;-86
2022/10/12 03:36:27;;;;;;;33.25;14.48;;;;;;;-145.69;100.00;52563.22;5084064;28;20644;-86
2022/10/12 03:38:55;;;;;;;34.03;13.60;;;;;;;-145.69;100.00;52541.44;5078110;28;20204;-85
2022/10/12 03:41:22;;;;;;;32.72;13.82;;;;;;;-145.69;100.00;52614.72;5079459;28;20202;-86
2022/10/12 03:43:48;;;;;;;34.72;14.60;;;;;;;-145.69;100.00;52551.31;5081075;28;20194;-86
2022/10/12 03:46:15;;;;;;;32.40;14.68;;;;;;;-145.69;100.00;52559.25;5083085;28;20249;-87
2022/10/12 03:48:42;;;;;;;38.75;16.23;;;;;;;-145.69;100.00;52547.38;5084485;28;20230;-87
2022/10/12 03:51:08;;;;;;;35.08;15.63;;;;;;;-145.69;100.00;52579.06;5083924;28;20198;-87
2022/10/12 03:53:35;;;;;;;32.15;14.68;;;;;;;-145.69;100.00;52583.00;5082598;28;20205;-87
2022/10/12 03:56:03;;;;;;;30.80;13.40;;;;;;;-145.69;100.00;52583.00;5083350;28;20237;-88
2022/10/12 03:58:29;;;;;;;35.70;15.70;;;;;;;-145.69;100.00;52602.81;5083345;28;20262;-86
2022/10/12 04:00:59;;;;;;;32.75;15.10;;;;;;;-145.69;100.00;52596.88;5084441;28;20663;-87
2022/10/12 04:03:25;;;;;;;40.30;16.23;;;;;;;-145.69;100.00;52579.06;5078924;28;20557;-87
2022/10/12 04:05:53;;;;;;;43.13;16.70;;;;;;;-145.69;100.00;52600.84;5077452;28;20676;-87
2022/10/12 04:08:20;;;;;;;42.15;17.58;;;;;;;-145.69;100.00;52586.97;5077307;28;20231;-87
2022/10/12 04:10:46;;;;;;;40.97;16.98;;;;;;;-145.69;100.00;52598.84;5081519;28;20649;-87
2022/10/12 04:13:14;;;;;;;38.67;16.60;;;;;;;-145.69;100.00;52586.97;5080758;28;20210;-87
2022/10/12 04:15:40;;;;;;;39.63;15.80;;;;;;;-145.69;100.00;52579.06;5078363;28;20203;-88
2022/10/12 04:18:07;;;;;;;31.00;13.75;;;;;;;-145.69;100.00;52594.91;5076934;28;20329;-88
2022/10/12 04:20:33;;;;;;;35.38;14.05;;;;;;;-145.69;100.00;52551.31;5075944;28;20221;-86
2022/10/12 04:23:00;;;;;;;37.38;17.13;;;;;;;-145.69;100.00;52561.22;5076809;28;20434;-86
2022/10/12 04:25:27;;;;;;;31.85;13.43;;;;;;;-145.69;100.00;52592.91;5078664;28;20203;-87
2022/10/12 04:27:54;;;;;;;38.63;16.50;;;;;;;-145.69;100.00;52571.13;5076458;28;20226;-88
2022/10/12 04:30:21;;;;;;;37.97;15.38;;;;;;;-145.69;100.00;52614.72;5063971;28;20207;-88
2022/10/12 04:32:48;;;;;;;39.85;14.85;;;;;;;-145.69;100.00;52602.81;5055818;28;20204;-86
2022/10/12 04:35:15;;;;;;;29.55;14.57;;;;;;;-145.69;100.00;52579.06;5055558;28;20688;-88
2022/10/12 04:37:41;;;;;;;39.33;15.48;;;;;;;-145.69;100.00;52575.09;5055287;28;20658;-88
2022/10/12 04:40:09;;;;;;;34.83;15.05;;;;;;;-145.69;100.00;52594.91;5055953;28;20206;-88
2022/10/12 04:42:35;;;;;;;27.77;13.77;;;;;;;-145.69;100.00;52533.50;5057946;28;20200;-88
2022/10/12 04:45:02;;;;;;;42.28;16.63;;;;;;;-145.69;100.00;52577.06;5075517;28;20557;-87
2022/10/12 04:47:30;;;;;;;37.08;16.60;;;;;;;-145.69;100.00;52581.03;5075315;28;20203;-88
2022/10/12 04:49:56;;;;;;;32.92;15.50;;;;;;;-145.69;100.00;52596.88;5075205;28;20209;-86
2022/10/12 04:52:22;;;;;;;41.30;15.82;;;;;;;-145.69;100.00;52614.72;5075657;28;20198;-87
2022/10/12 04:54:49;;;;;;;31.50;14.57;;;;;;;-145.69;100.00;52571.13;5075363;28;20206;-87
2022/10/12 04:57:16;;;;;;;37.40;15.68;;;;;;;-145.69;100.00;52586.97;5075567;28;20195;-87
2022/10/12 04:59:42;;;;;;;33.60;15.50;;;;;;;-145.69;100.00;52563.22;5076009;28;20293;-86
2022/10/12 05:02:09;;;;;;;31.00;13.45;;;;;;;-145.69;100.00;52602.81;5075122;28;20675;-88
2022/10/12 05:04:37;;;;;;;29.63;13.55;;;;;;;-145.69;100.00;52586.97;5075657;28;20557;-88
2022/10/12 05:07:03;;;;;;;36.65;14.77;;;;;;;-145.69;100.00;52596.88;5075913;28;20210;-87
2022/10/12 05:09:30;;;;;;;30.50;14.27;;;;;;;-145.69;100.00;52602.81;5076291;28;20648;-87
2022/10/12 05:11:56;;;;;;;28.27;14.98;;;;;;;-145.69;100.00;52606.78;5077525;28;20231;-86
2022/10/12 05:14:23;;;;;;;33.85;16.42;;;;;;;-145.69;100.00;52583.00;5074901;28;20681;-87
2022/10/12 05:16:49;;;;;;;42.38;16.05;;;;;;;-145.69;100.00;52575.09;5074534;28;20211;-86
2022/10/12 05:19:16;;;;;;;35.88;15.82;;;;;;;-145.69;100.00;52604.81;5075677;28;20227;-87
2022/10/12 05:21:44;;;;;;;44.13;16.65;;;;;;;-145.69;100.00;52590.94;5077134;28;20203;-87
2022/10/12 05:24:10;;;;;;;36.45;15.73;;;;;;;-145.69;100.00;52586.97;5076970;28;20205;-86
2022/10/12 05:26:37;;;;;;;45.47;17.95;;;;;;;-145.69;100.00;52577.06;5076742;28;20206;-87
2022/10/12 05:29:03;;;;;;;40.55;16.95;;;;;;;-145.69;100.00;52598.84;5075362;28;20238;-86
2022/10/12 05:31:30;;;;;;;41.00;15.98;;;;;;;-145.69;100.00;52590.94;5074431;28;20203;-87
2022/10/12 05:33:57;;;;;;;40.70;15.98;;;;;;;-145.69;100.00;52600.84;5074735;28;20649;-86
2022/10/12 05:36:23;;;;;;;41.50;16.67;;;;;;;-145.69;100.00;52535.47;5074631;28;20213;-87
2022/10/12 05:38:51;;;;;;;38.78;16.75;;;;;;;-145.69;100.00;52596.88;5074906;28;20217;-86
2022/10/12 05:41:18;;;;;;;41.00;15.82;;;;;;;-145.69;100.00;52596.88;5074567;28;20203;-87
2022/10/12 05:43:44;;;;;;;34.35;15.07;;;;;;;-145.69;100.00;52555.28;5059111;28;20200;-86
2022/10/12 05:46:11;;;;;;;33.08;15.20;;;;;;;-145.69;100.00;52606.78;5074944;28;20206;-87
2022/10/12 05:48:37;;;;;;;30.13;14.15;;;;;;;-145.69;100.00;52596.88;5076307;28;20230;-86
2022/10/12 05:51:04;;;;;;;36.67;15.82;;;;;;;-145.69;100.00;52579.06;5076165;28;20259;-86
2022/10/12 05:53:31;;;;;;;42.72;16.50;;;;;;;-145.69;100.00;52594.91;5077307;28;20282;-86
2022/10/12 05:56:00;;;;;;;34.97;17.33;;;;;;;-145.69;100.00;52579.06;5075841;28;20438;-86
2022/10/12 05:58:27;;;;;;;35.15;16.08;;;;;;;-145.69;100.00;52610.75;5076525;28;20199;-85
2022/10/12 06:00:54;;;;;;;31.98;16.40;;;;;;;-145.69;100.00;52547.38;5076318;28;20656;-87
2022/10/12 06:03:22;;;;;;;32.45;16.00;;;;;;;-145.69;100.00;52551.31;5074832;28;20285;-87
2022/10/12 06:05:48;;;;;;;30.42;14.43;;;;;;;-145.69;100.00;52594.91;5075064;28;20209;-87
2022/10/12 06:08:15;;;;;;;30.80;13.68;;;;;;;-145.69;100.00;52598.84;5074080;28;20227;-87
2022/10/12 06:10:45;;;;;;;35.55;13.98;;;;;;;-145.69;100.00;52577.06;5074145;28;20198;-86
2022/10/12 06:13:13;;;;;;;22.05;11.75;;;;;;;-145.69;100.00;52557.28;5074183;28;20199;-87
2022/10/12 06:15:39;;;;;;;31.40;14.10;;;;;;;-145.69;100.00;52588.97;5073847;28;20202;-87
2022/10/12 06:18:06;;;;;;;33.47;15.18;;;;;;;-145.69;100.00;52565.19;5072647;28;20581;-87
2022/10/12 06:20:33;;;;;;;35.35;14.98;;;;;;;-145.69;100.00;52612.72;5073861;28;20203;-86
2022/10/12 06:22:59;;;;;;;32.80;14.05;;;;;;;-145.69;100.00;52586.97;5074073;28;20203;-87
2022/10/12 06:25:26;;;;;;;31.95;13.43;;;;;;;-145.69;100.00;52563.22;5073953;28;20198;-87
2022/10/12 06:27:52;;;;;;;32.85;13.98;;;;;;;-145.69;100.00;52557.28;5073597;28;20206;-87
2022/10/12 06:30:20;;;;;;;34.72;14.48;;;;;;;-145.69;100.00;52571.13;5073755;28;20222;-87
2022/10/12 06:32:47;;;;;;;29.98;13.73;;;;;;;-145.69;100.00;52579.06;5054274;28;20207;-86
2022/10/12 06:35:13;;;;;;;36.92;13.32;;;;;;;-145.69;100.00;52583.00;5039215;28;20217;-86
2022/10/12 06:37:40;;;;;;;32.60;15.15;;;;;;;-145.69;100.00;52581.03;5034560;28;20555;-85
2022/10/12 06:40:08;;;;;;;33.53;14.10;;;;;;;-145.69;100.00;52569.16;5035513;28;20282;-86
2022/10/12 06:42:34;;;;;;;34.42;13.70;;;;;;;-145.69;100.00;52571.13;5035188;28;20235;-86
2022/10/12 06:45:01;;;;;;;30.73;11.98;;;;;;;-145.69;100.00;52602.81;5035581;28;20202;-86
2022/10/12 06:47:29;;;;;;;30.20;13.32;;;;;;;-145.69;100.00;52586.97;5034512;28;20291;-86
2022/10/12 06:49:55;;;;;;;24.85;12.75;;;;;;;-145.69;100.00;52579.06;5034356;28;20232;-87
2022/10/12 06:52:22;;;;;;;28.75;14.20;;;;;;;-145.69;100.00;52579.06;5034026;28;20200;-85
2022/10/12 06:54:48;;;;;;;30.75;13.82;;;;;;;-145.69;100.00;52569.16;5034326;28;20223;-85
2022/10/12 06:57:15;;;;;;;30.83;13.85;;;;;;;-145.69;100.00;52590.94;5034731;28;20686;-86
2022/10/12 06:59:41;;;;;;;31.08;12.88;;;;;;;-145.69;100.00;52559.25;5035752;28;20200;-86
2022/10/12 07:02:09;;;;;;;33.22;13.02;;;;;;;-145.69;100.00;52551.31;5052654;28;20283;-86
2022/10/12 07:04:37;;;;;;;36.55;13.05;;;;;;;-145.69;100.00;52579.06;5057294;28;20203;-86
2022/10/12 07:07:04;;;;;;;27.95;13.00;;;;;;;-145.69;100.00;52586.97;5058326;28;20196;-86
2022/10/12 07:09:33;;;;;;;33.13;13.18;;;;;;;-145.69;100.00;52575.09;5060784;28;20227;-86
2022/10/12 07:12:00;;;;;;;31.83;12.95;;;;;;;-145.69;100.00;52567.16;5058936;28;20294;-86
2022/10/12 07:14:26;;;;;;;33.47;13.55;;;;;;;-145.69;100.00;52583.00;5062167;28;20226;-86
2022/10/12 07:16:53;;;;;;;29.52;12.38;;;;;;;-145.69;100.00;52547.38;5061585;28;20682;-86
2022/10/12 07:19:19;;;;;;;30.83;11.77;;;;;;;-145.69;100.00;52594.91;5061581;28;20317;-86
2022/10/12 07:21:47;;;;;;;26.92;11.85;;;;;;;-145.69;100.00;52577.06;5059663;28;20654;-86
2022/10/12 07:24:14;;;;;;;27.20;11.23;;;;;;;-145.69;100.00;52559.25;5057537;28;20207;-85
2022/10/12 07:26:40;;;;;;;26.38;12.27;;;;;;;-145.69;100.00;52571.13;5058168;28;20200;-85
2022/10/12 07:29:08;;;;;;;23.08;10.95;;;;;;;-145.69;100.00;52618.66;5059057;28;20677;-86
2022/10/12 07:31:34;;;;;;;30.48;11.65;;;;;;;-145.69;100.00;52592.91;5068565;28;20676;-85
2022/10/12 07:34:01;;;;;;;34.03;12.70;;;;;;;-145.69;100.00;52575.09;5079624;28;20626;-85
2022/10/12 07:36:29;;;;;;;33.15;12.38;;;;;;;-145.69;100.00;52567.16;5078647;28;20206;-85
2022/10/12 07:38:57;;;;;;;25.90;10.82;;;;;;;-145.69;100.00;52551.31;5076709;28;20195;-86
2022/10/12 07:41:23;;;;;;;24.83;12.10;;;;;;;-145.69;100.00;52543.41;5077140;28;20206;-86
2022/10/12 07:43:54;;;;;;;27.38;11.57;;;;;;;-145.69;100.00;52571.13;5076418;28;20613;-86
2022/10/12 07:46:21;;;;;;;26.25;11.65;;;;;;;-145.69;100.00;52561.22;5076240;28;20225;-83
2022/10/12 07:48:47;;;;;;;28.73;11.25;;;;;;;-145.69;100.00;52523.59;5075911;28;20234;-84
2022/10/12 07:51:14;;;;;;;21.98;10.75;;;;;;;-145.69;100.00;52571.13;5075860;28;20538;-84
2022/10/12 07:53:40;;;;;;;23.45;9.82;;;;;;;-145.69;100.00;52561.22;5076337;28;20211;-86
2022/10/12 07:56:13;;;;;;;21.25;10.23;;;;;;;-145.69;100.00;52585.00;5075998;28;20214;-84
2022/10/12 07:58:40;;;;;;;25.77;11.48;;;;;;;-145.69;100.00;52547.38;5055927;28;20286;-84
2022/10/12 08:01:09;;;;;;;23.15;10.55;;;;;;;-145.69;100.00;52561.22;5059249;28;20553;-85
2022/10/12 08:03:35;;;;;;;23.42;10.43;;;;;;;-145.69;100.00;52586.97;5058163;28;20204;-85
2022/10/12 08:06:09;;;;;;;21.13;9.85;;;;;;;-145.69;100.00;52539.44;5063030;28;20203;-84
2022/10/12 08:08:35;;;;;;;20.45;9.95;;;;;;;-145.69;100.00;52559.25;5055510;28;20253;-86
2022/10/12 08:11:03;;;;;;;24.15;10.23;;;;;;;-145.69;100.00;52527.56;5038876;28;20208;-83
2022/10/12 08:13:31;;;;;;;17.73;8.38;;;;;;;-145.69;100.00;52545.38;5051820;28;20225;-82
2022/10/12 08:15:58;;;;;;;19.08;9.02;;;;;;;-145.69;100.00;52579.06;5055410;28;20211;-84
2022/10/12 08:18:24;;;;;;;23.08;8.85;;;;;;;-145.69;100.00;52569.16;5055468;28;20242;-82
2022/10/12 08:20:51;;;;;;;16.90;8.40;;;;;;;-145.69;100.00;52537.47;5055508;28;20650;-83
2022/10/12 08:23:17;;;;;;;25.95;9.27;;;;;;;-145.69;100.00;52559.25;5055480;28;20253;-83
2022/10/12 08:25:51;;;;;;;22.17;9.15;;;;;;;-145.69;100.00;52533.50;5055713;28;20677;-83
2022/10/12 08:28:18;;;;;;;17.60;8.18;;;;;;;-145.69;100.00;52551.31;5056192;28;20680;-82
2022/10/12 08:30:46;;;;;;;19.45;8.55;;;;;;;-145.69;100.00;52507.75;5054907;28;20801;-83
2022/10/12 08:33:12;;;;;;;18.45;7.53;;;;;;;-145.69;100.00;52588.97;5054639;28;20207;-83
2022/10/12 08:35:39;;;;;;;18.85;8.18;;;;;;;-145.69;100.00;52553.31;5057172;28;20650;-83
2022/10/12 08:38:06;;;;;;;19.92;8.30;;;;;;;-145.69;100.00;52557.28;5055489;28;20203;-87
2022/10/12 08:40:36;;;;;;;16.92;7.97;;;;;;;-145.69;100.00;52547.38;5056657;28;20207;-82
2022/10/12 08:43:11;;;;;;;17.27;7.10;;;;;;;-145.69;100.00;52523.59;5054578;28;20210;-80
2022/10/12 08:45:47;;;;;;;13.80;7.13;;;;;;;-145.69;100.00;52521.63;5055204;28;20285;-80
2022/10/12 08:48:18;;;;;;;14.60;6.55;;;;;;;-145.69;100.00;52531.53;5054955;28;20207;-81
2022/10/12 08:50:50;;;;;;;14.85;7.20;;;;;;;-145.69;100.00;52539.44;5054655;28;20597;-82
2022/10/12 08:53:22;;;;;;;13.38;6.90;;;;;;;-145.69;100.00;52519.63;5054403;28;20196;-81
2022/10/12 08:55:51;;;;;;;17.58;7.25;;;;;;;-145.69;100.00;52501.81;5054355;28;20223;-83
2022/10/12 08:58:20;;;;;;;17.13;6.60;;;;;;;-145.69;100.00;52484.00;5054983;28;20223;-83
2022/10/12 09:00:50;;;;;;;12.48;6.13;;;;;;;-145.69;100.00;52497.84;5054852;28;20195;-84
2022/10/12 09:03:32;;;;;;;16.02;7.03;;;;;;;-145.69;100.00;52523.59;5055239;28;20203;-84
2022/10/12 09:06:10;;;;;;;12.10;6.95;;;;;;;-145.69;100.00;52515.69;5054413;28;20851;-84
2022/10/12 09:08:50;;;;;;;16.40;7.40;;;;;;;-145.69;100.00;52478.06;5054866;28;20665;-84
2022/10/12 09:11:35;;;;;;;13.40;6.50;;;;;;;-145.69;100.00;52545.38;5054264;28;20621;-84
2022/10/12 09:14:07;;;;;;;14.60;6.85;;;;;;;-145.69;100.00;52505.78;5054583;28;20665;-83
2022/10/12 09:16:37;;;;;;;16.55;7.22;;;;;;;-145.69;100.00;52535.47;5054203;28;20206;-83
2022/10/12 09:19:13;;;;;;;15.60;7.32;;;;;;;-145.69;100.00;52519.63;5053817;28;20559;-84
2022/10/12 09:21:41;;;;;;;18.25;6.82;;;;;;;-145.69;100.00;52519.63;5072742;28;20198;-84
2022/10/12 09:24:13;;;;;;;11.88;6.55;;;;;;;-145.69;100.00;52491.91;5073264;28;20199;-84
2022/10/12 09:26:40;;;;;;;12.52;6.05;;;;;;;-145.69;100.00;52474.09;5074335;28;20202;-84
2022/10/12 09:29:22;;;;;;;13.98;6.60;;;;;;;-145.69;100.00;52491.91;5074295;28;20210;-83
2022/10/12 09:32:05;;;;;;;14.00;6.55;;;;;;;-145.69;100.00;52466.16;5074215;28;20203;-84
2022/10/12 09:34:33;;;;;;;13.38;6.32;;;;;;;-145.69;100.00;52501.81;5074332;28;20206;-84
2022/10/12 09:37:02;;;;;;;15.95;7.65;;;;;;;-145.69;100.00;52487.97;5073977;28;20203;-83
2022/10/12 09:39:31;;;;;;;13.13;6.90;;;;;;;-145.69;100.00;52505.78;5074332;28;20645;-83
2022/10/12 09:41:58;;;;;;;14.10;6.55;;;;;;;-145.69;100.00;52517.66;5074006;28;20227;-84
2022/10/12 09:44:31;;;;;;;17.10;6.38;;;;;;;-145.69;100.00;52499.84;5073587;28;20229;-84
2022/10/12 09:47:00;;;;;;;12.07;5.88;;;;;;;-145.69;100.00;52507.75;5073312;28;20202;-83
2022/10/12 09:49:41;;;;;;;16.15;6.50;;;;;;;-145.69;100.00;52497.84;5073136;28;20222;-82
2022/10/12 09:52:09;;;;;;;12.60;6.72;;;;;;;-145.69;100.00;52507.75;5033344;28;20273;-83
2022/10/12 09:54:40;;;;;;;11.43;6.30;;;;;;;-145.69;100.00;52464.19;5033585;28;20230;-83
2022/10/12 09:57:07;;;;;;;11.95;5.72;;;;;;;-145.69;100.00;52487.97;5033729;28;20206;-83
2022/10/12 09:59:38;;;;;;;14.18;6.07;;;;;;;-145.69;100.00;52485.97;5033672;28;20200;-82
2022/10/12 10:02:14;;;;;;;12.52;6.30;;;;;;;-145.69;100.00;52497.84;5033590;28;20204;-82
2022/10/12 10:04:43;;;;;;;11.27;5.18;;;;;;;-145.69;100.00;52493.91;5033214;28;20204;-82
2022/10/12 10:07:22;;;;;;;9.38;5.00;;;;;;;-145.69;100.00;52499.84;5033335;28;20210;-83
2022/10/12 10:10:03;;;;;;;11.75;4.75;;;;;;;-145.69;100.00;52480.03;5069720;28;20230;-83
2022/10/12 10:12:30;;;;;;;11.38;4.97;;;;;;;-145.69;100.00;52480.03;5073259;28;20206;-83
2022/10/12 10:14:59;;;;;;;13.48;5.55;;;;;;;-145.69;100.00;52462.22;5073294;28;20206;-83
2022/10/12 10:17:27;;;;;;;8.68;4.03;;;;;;;-145.69;100.00;52503.81;5072769;28;20652;-83
2022/10/12 10:19:56;;;;;;;13.68;5.40;;;;;;;-145.69;100.00;52493.91;5072654;28;20209;-81
2022/10/12 10:22:24;;;;;;;13.70;4.63;;;;;;;-145.69;100.00;52472.13;5073096;28;20209;-83
2022/10/12 10:24:53;;;;;;;12.30;4.88;;;;;;;-145.69;100.00;52472.13;5072981;28;20203;-83
2022/10/12 10:27:33;;;;;;;12.25;4.97;;;;;;;-145.69;100.00;52476.06;5072985;28;20214;-84
2022/10/12 10:30:19;;;;;;;11.98;5.10;;;;;;;-145.69;100.00;52495.88;5039456;28;20290;-86
2022/10/12 10:32:46;;;;;;;10.90;4.30;;;;;;;-145.69;100.00;52491.91;5033315;28;20243;-85
2022/10/12 10:35:20;;;;;;;11.32;3.90;;;;;;;-145.69;100.00;52452.31;5032763;28;20658;-79
2022/10/12 10:37:50;;;;;;;10.40;4.10;;;;;;;-145.69;100.00;52444.38;5034068;28;20207;-83
2022/10/12 10:40:20;;;;;;;12.07;4.18;;;;;;;-145.69;100.00;52440.44;5053113;28;20593;-82
2022/10/12 10:42:49;;;;;;;10.90;4.47;;;;;;;-145.69;100.00;52478.06;5052930;28;20222;-82
2022/10/12 10:45:23;;;;;;;9.23;4.40;;;;;;;-145.69;100.00;52464.19;5052817;28;20206;-83
2022/10/12 10:47:53;;;;;;;10.13;3.70;;;;;;;-145.69;100.00;52412.69;5052347;28;20573;-83
2022/10/12 10:50:27;;;;;;;11.10;3.70;;;;;;;-145.69;99.45;52432.50;5052667;28;20231;-83
2022/10/12 10:52:56;;;;;;;8.07;3.53;;;;;;;-145.69;97.66;52452.31;5053448;28;20203;-87
2022/10/12 10:55:35;;;;;;;8.82;4.03;;;;;;;-145.69;98.43;52428.53;5051941;28;20925;-83
2022/10/12 10:58:04;;;;;;;6.20;3.78;;;;;;;-145.69;96.93;52470.13;5051660;28;20210;-85
2022/10/12 11:00:34;;;;;;;7.22;3.53;;;;;;;-145.69;100.00;52464.19;5052726;28;20198;-86
2022/10/12 11:03:06;;;;;;;9.23;3.78;;;;;;;-145.69;100.00;52460.22;5053012;28;20290;-86
2022/10/12 11:05:37;;;;;;;8.70;4.20;;;;;;;-145.69;100.00;52476.06;5052785;28;20199;-85
2022/10/12 11:08:11;;;;;;;8.48;3.55;;;;;;;-145.69;100.00;52487.97;5053075;28;20197;-85